Time;durP1;ratioP1;P1;durP2;ratioP2;P2;SDS_P1;SDS_P2;PMS_P1;PMS_P2;Temp;Humidity;BMP_temperature;BMP_pressure;BME280_temperature;BME280_humidity;BME280_pressure;Samples;Min_cycle;Max_cycle;Signal;HPM_P1;HPM_P2
2022/08/20 00:00:16;;;;;;;9.60;7.10;;;21.10;91.10;;;;;;4984184;28;20406;-63
2022/08/20 00:02:44;;;;;;;9.75;7.57;;;21.10;91.20;;;;;;4999996;28;20036;-63
2022/08/20 00:05:09;;;;;;;12.70;7.93;;;21.10;91.20;;;;;;5000156;28;21057;-63
2022/08/20 00:07:35;;;;;;;10.23;7.20;;;21.10;91.20;;;;;;4998648;28;20494;-63
2022/08/20 00:10:00;;;;;;;10.55;7.47;;;21.00;91.20;;;;;;5001160;28;20105;-62
2022/08/20 00:12:26;;;;;;;14.07;7.50;;;21.00;91.20;;;;;;5003739;28;20117;-62
2022/08/20 00:14:51;;;;;;;10.00;7.65;;;21.00;91.20;;;;;;5004405;28;20096;-63
2022/08/20 00:17:17;;;;;;;14.48;7.22;;;21.00;91.20;;;;;;5002693;28;20037;-63
2022/08/20 00:19:42;;;;;;;11.77;7.13;;;21.00;91.20;;;;;;5000712;28;20092;-63
2022/08/20 00:22:08;;;;;;;12.57;7.75;;;21.00;91.20;;;;;;5001673;28;20192;-63
2022/08/20 00:24:33;;;;;;;9.35;6.90;;;21.00;91.20;;;;;;5002290;28;20172;-63
2022/08/20 00:26:59;;;;;;;7.78;6.95;;;21.00;91.20;;;;;;4987391;28;20034;-63
2022/08/20 00:29:24;;;;;;;12.63;8.20;;;21.00;91.20;;;;;;4998841;28;20104;-63
2022/08/20 00:31:50;;;;;;;12.25;8.50;;;21.00;91.20;;;;;;5000593;28;20034;-63
2022/08/20 00:34:16;;;;;;;11.27;7.32;;;21.00;91.20;;;;;;5000375;28;20034;-62
2022/08/20 00:36:41;;;;;;;9.45;8.52;;;21.00;91.20;;;;;;4999250;28;22516;-63
2022/08/20 00:39:07;;;;;;;8.55;7.68;;;21.00;91.30;;;;;;5000865;28;20073;-63
2022/08/20 00:41:32;;;;;;;11.02;7.97;;;21.00;91.20;;;;;;4984279;28;20038;-63
2022/08/20 00:44:18;;;;;;;16.05;7.28;;;20.90;91.20;;;;;;5000814;28;20048;-63
2022/08/20 00:46:44;;;;;;;10.18;7.90;;;20.90;91.20;;;;;;5014037;28;20034;-61
2022/08/20 00:49:24;;;;;;;12.32;8.15;;;20.90;91.30;;;;;;5000148;28;20029;-63
2022/08/20 00:52:06;;;;;;;8.32;7.50;;;20.90;91.30;;;;;;4999878;28;20030;-62
2022/08/20 00:54:40;;;;;;;9.27;7.68;;;20.90;91.30;;;;;;4968728;28;20033;-63
2022/08/20 00:57:25;;;;;;;9.68;8.23;;;20.90;91.40;;;;;;4999879;28;20030;-63
2022/08/20 00:59:50;;;;;;;11.07;7.45;;;20.80;91.30;;;;;;5001016;28;20045;-63
2022/08/20 01:02:16;;;;;;;7.93;7.00;;;20.80;91.40;;;;;;4967231;28;20033;-63
2022/08/20 01:04:53;;;;;;;10.45;7.47;;;20.80;91.50;;;;;;5014712;28;20040;-63
2022/08/20 01:07:23;;;;;;;10.98;8.35;;;20.80;91.40;;;;;;4999210;28;20033;-63
2022/08/20 01:09:48;;;;;;;15.43;9.25;;;20.80;91.40;;;;;;4981134;28;20018;-63
2022/08/20 01:12:14;;;;;;;15.38;7.85;;;20.80;91.50;;;;;;4997091;28;20085;-63
2022/08/20 01:14:43;;;;;;;12.15;7.90;;;20.70;91.40;;;;;;4982424;28;20037;-63
2022/08/20 01:17:12;;;;;;;9.90;7.10;;;20.70;91.50;;;;;;4998934;28;20088;-62
2022/08/20 01:19:50;;;;;;;13.27;7.72;;;20.70;91.50;;;;;;4967653;28;20121;-63
2022/08/20 01:25:08;;;;;;;12.95;7.95;;;20.70;91.50;;;;;;4987172;28;20044;-63
2022/08/20 01:27:34;;;;;;;10.40;7.15;;;20.70;91.80;;;;;;4986769;28;20116;-63
2022/08/20 01:29:59;;;;;;;13.32;8.52;;;20.80;91.50;;;;;;4982672;28;20137;-63
2022/08/20 01:32:25;;;;;;;13.82;8.82;;;20.70;91.50;;;;;;5015220;28;20041;-62
2022/08/20 01:34:50;;;;;;;21.08;12.18;;;20.70;91.60;;;;;;5001636;28;20030;-63
2022/08/20 01:37:16;;;;;;;18.92;10.93;;;20.70;91.60;;;;;;4999116;28;20071;-62
2022/08/20 01:39:41;;;;;;;17.67;10.45;;;20.70;91.60;;;;;;4998357;28;20499;-63
2022/08/20 01:42:16;;;;;;;10.15;8.57;;;20.70;91.60;;;;;;4998389;28;20046;-63
2022/08/20 01:44:43;;;;;;;13.27;8.63;;;20.70;91.60;;;;;;4999210;28;20033;-63
2022/08/20 01:47:11;;;;;;;12.40;9.27;;;20.70;91.60;;;;;;4983179;28;20021;-62
2022/08/20 01:49:42;;;;;;;11.23;7.88;;;20.60;91.60;;;;;;5001585;28;20030;-63
2022/08/20 01:52:08;;;;;;;10.40;7.90;;;20.70;91.70;;;;;;5000122;28;20320;-63
2022/08/20 01:54:34;;;;;;;9.52;8.15;;;20.70;91.70;;;;;;4980778;28;20108;-62
2022/08/20 01:57:05;;;;;;;10.80;7.55;;;20.60;91.70;;;;;;4981103;28;20037;-63
2022/08/20 01:59:31;;;;;;;15.35;8.85;;;20.60;91.70;;;;;;4998324;28;20041;-63
2022/08/20 02:01:57;;;;;;;13.45;9.80;;;20.60;91.70;;;;;;4997052;28;20494;-63
2022/08/20 02:04:22;;;;;;;11.63;8.38;;;20.60;91.70;;;;;;5013602;28;20033;-62
2022/08/20 02:06:51;;;;;;;10.75;8.38;;;20.60;91.70;;;;;;4982629;28;20025;-63
2022/08/20 02:09:16;;;;;;;10.82;9.32;;;20.60;91.80;;;;;;4981081;28;20026;-63
2022/08/20 02:11:42;;;;;;;10.35;8.43;;;20.50;91.80;;;;;;4997553;28;20080;-63
2022/08/20 02:14:08;;;;;;;11.35;9.02;;;20.50;91.80;;;;;;4997481;28;20401;-63
2022/08/20 02:16:35;;;;;;;9.27;8.32;;;20.50;91.80;;;;;;4998881;28;20028;-63
2022/08/20 02:19:08;;;;;;;13.38;8.65;;;20.50;91.80;;;;;;4999355;28;20054;-63
2022/08/20 02:21:33;;;;;;;13.52;8.63;;;20.50;91.80;;;;;;5015254;28;20485;-62
2022/08/20 02:23:59;;;;;;;10.30;8.32;;;20.50;91.80;;;;;;5014782;28;20022;-62
2022/08/20 02:26:25;;;;;;;11.30;8.82;;;20.50;91.80;;;;;;4998472;28;20494;-62
2022/08/20 02:28:51;;;;;;;10.63;8.90;;;20.50;91.90;;;;;;4998311;28;20223;-63
2022/08/20 02:31:17;;;;;;;11.23;8.93;;;20.50;91.90;;;;;;4997088;28;20260;-63
2022/08/20 02:33:43;;;;;;;10.32;9.32;;;20.50;91.90;;;;;;4998019;28;20053;-63
2022/08/20 02:36:11;;;;;;;9.57;8.68;;;20.50;91.90;;;;;;4997224;28;20655;-62
2022/08/20 02:38:37;;;;;;;12.32;8.40;;;20.50;91.90;;;;;;4997793;28;20061;-63
2022/08/20 02:41:03;;;;;;;9.15;8.32;;;20.50;91.80;;;;;;5001747;28;20022;-62
2022/08/20 02:43:30;;;;;;;9.27;8.38;;;20.50;91.90;;;;;;4986398;28;20076;-63
2022/08/20 02:45:56;;;;;;;9.07;8.18;;;20.40;91.90;;;;;;5003864;28;20061;-62
2022/08/20 02:48:22;;;;;;;9.27;7.90;;;20.40;91.90;;;;;;4985027;28;20113;-63
2022/08/20 02:50:50;;;;;;;8.45;7.65;;;20.50;91.90;;;;;;5015016;28;20388;-63
2022/08/20 02:53:16;;;;;;;8.38;7.53;;;20.40;91.90;;;;;;4982504;28;20250;-63
2022/08/20 02:55:41;;;;;;;9.30;8.40;;;20.40;91.90;;;;;;4966439;28;20026;-63
2022/08/20 02:58:07;;;;;;;10.82;8.85;;;20.40;91.90;;;;;;5000670;28;20316;-63
2022/08/20 03:00:33;;;;;;;9.02;8.20;;;20.40;91.90;;;;;;4999406;28;20269;-63
2022/08/20 03:02:59;;;;;;;9.88;8.18;;;20.40;92.00;;;;;;5000813;28;20409;-63
2022/08/20 03:05:25;;;;;;;8.98;8.07;;;20.40;92.00;;;;;;4985519;28;20604;-63
2022/08/20 03:07:55;;;;;;;8.82;7.90;;;20.40;92.00;;;;;;5016591;28;20125;-63
2022/08/20 03:10:26;;;;;;;9.88;7.82;;;20.30;92.00;;;;;;5017007;28;20029;-63
2022/08/20 03:12:52;;;;;;;12.25;8.27;;;20.40;92.00;;;;;;5017350;28;20072;-62
2022/08/20 03:15:18;;;;;;;10.60;8.38;;;20.30;92.00;;;;;;5000834;28;20424;-63
2022/08/20 03:17:44;;;;;;;9.38;8.48;;;20.30;92.00;;;;;;4985313;28;20122;-62
2022/08/20 03:20:10;;;;;;;9.07;8.27;;;20.30;92.00;;;;;;5002170;28;20264;-63
2022/08/20 03:22:35;;;;;;;9.13;7.68;;;20.30;92.00;;;;;;5000346;28;20045;-63
2022/08/20 03:25:01;;;;;;;11.95;8.15;;;20.30;92.00;;;;;;5002547;28;20046;-63
2022/08/20 03:27:26;;;;;;;12.32;7.70;;;20.20;91.90;;;;;;5001750;28;20045;-62
2022/08/20 03:29:52;;;;;;;8.77;7.50;;;20.30;92.00;;;;;;5000234;28;20153;-63
2022/08/20 03:32:17;;;;;;;8.05;7.35;;;20.30;92.00;;;;;;5002759;28;20273;-62
2022/08/20 03:34:43;;;;;;;8.23;7.35;;;20.30;92.00;;;;;;5001049;28;20030;-62
2022/08/20 03:37:10;;;;;;;7.78;7.07;;;20.30;92.00;;;;;;5000298;28;20122;-62
2022/08/20 03:39:36;;;;;;;7.63;6.93;;;20.20;92.00;;;;;;5000939;28;20094;-62
2022/08/20 03:42:01;;;;;;;7.75;6.75;;;20.30;92.00;;;;;;5002137;28;20512;-63
2022/08/20 03:44:27;;;;;;;8.07;7.25;;;20.30;92.00;;;;;;5001403;28;20074;-63
2022/08/20 03:46:53;;;;;;;8.77;7.22;;;20.20;92.00;;;;;;5002464;28;20426;-63
2022/08/20 03:49:18;;;;;;;7.47;6.78;;;20.20;92.00;;;;;;5001900;28;20583;-63
2022/08/20 03:51:44;;;;;;;8.70;7.15;;;20.20;92.10;;;;;;5001794;28;20061;-63
2022/08/20 03:54:09;;;;;;;7.60;6.90;;;20.20;92.20;;;;;;4999753;28;20541;-64
2022/08/20 03:56:35;;;;;;;9.10;6.68;;;20.20;92.30;;;;;;5032393;28;20133;-64
2022/08/20 03:59:00;;;;;;;8.20;6.78;;;20.20;92.30;;;;;;4983597;28;20026;-64
2022/08/20 04:01:26;;;;;;;8.13;6.68;;;20.20;92.30;;;;;;5002969;28;20038;-64
2022/08/20 04:03:51;;;;;;;9.60;6.65;;;20.20;92.20;;;;;;4999415;28;20431;-63
2022/08/20 04:06:17;;;;;;;7.60;6.78;;;20.20;92.20;;;;;;5032334;28;20863;-64
2022/08/20 04:08:42;;;;;;;8.57;6.63;;;20.20;92.20;;;;;;5000968;28;20040;-62
2022/08/20 04:11:08;;;;;;;7.13;6.43;;;20.20;92.20;;;;;;5003032;28;20382;-62
2022/08/20 04:13:33;;;;;;;7.10;6.40;;;20.20;92.20;;;;;;4988696;28;20022;-62
2022/08/20 04:16:05;;;;;;;7.80;7.13;;;20.20;92.20;;;;;;5004682;28;20695;-62
2022/08/20 04:18:32;;;;;;;7.03;6.32;;;20.20;92.20;;;;;;4985115;28;20021;-62
2022/08/20 04:20:58;;;;;;;8.98;6.68;;;20.20;92.10;;;;;;5003755;28;20033;-62
2022/08/20 04:23:23;;;;;;;7.50;6.70;;;20.20;92.10;;;;;;4997976;28;20406;-62
2022/08/20 04:25:49;;;;;;;9.73;6.97;;;20.20;92.10;;;;;;5000124;28;20692;-62
2022/08/20 04:28:27;;;;;;;6.60;6.00;;;20.20;92.20;;;;;;4999103;28;20038;-62
2022/08/20 04:30:53;;;;;;;7.32;6.40;;;20.20;92.20;;;;;;5000628;28;20410;-62
2022/08/20 04:33:19;;;;;;;6.32;5.75;;;20.20;92.20;;;;;;4980901;28;20537;-62
2022/08/20 04:35:44;;;;;;;6.63;6.00;;;20.20;92.20;;;;;;4982403;28;20084;-62
2022/08/20 04:38:16;;;;;;;6.53;5.93;;;20.20;92.30;;;;;;5001360;28;20481;-62
2022/08/20 04:40:57;;;;;;;7.00;5.95;;;20.20;92.30;;;;;;4999673;28;20061;-62
2022/08/20 04:43:24;;;;;;;6.68;6.07;;;20.20;92.20;;;;;;5000897;28;20026;-62
2022/08/20 04:45:53;;;;;;;6.65;6.00;;;20.10;92.20;;;;;;4997994;28;20469;-62
2022/08/20 04:48:20;;;;;;;6.90;6.20;;;20.20;92.30;;;;;;4982215;28;20118;-63
2022/08/20 04:50:45;;;;;;;6.47;5.88;;;20.10;92.30;;;;;;4982397;28;20397;-62
2022/08/20 04:53:12;;;;;;;8.88;6.05;;;20.10;92.30;;;;;;5000000;28;20045;-62
2022/08/20 04:55:41;;;;;;;6.43;5.82;;;20.10;92.30;;;;;;5014683;28;20026;-62
2022/08/20 04:58:09;;;;;;;6.30;5.70;;;20.10;92.30;;;;;;5000961;28;20026;-63
2022/08/20 05:00:34;;;;;;;9.15;5.97;;;20.10;92.30;;;;;;4968202;28;20033;-62
2022/08/20 05:03:00;;;;;;;11.50;6.30;;;20.10;92.30;;;;;;4980293;28;20589;-63
2022/08/20 05:05:26;;;;;;;11.90;6.28;;;20.10;92.30;;;;;;4997581;28;20508;-63
2022/08/20 05:07:52;;;;;;;10.18;5.93;;;20.10;92.30;;;;;;5000615;28;20037;-62
2022/08/20 05:10:17;;;;;;;7.13;5.95;;;20.10;92.30;;;;;;4982244;28;20048;-63
2022/08/20 05:12:43;;;;;;;8.82;5.95;;;20.10;92.20;;;;;;4982868;28;20029;-63
2022/08/20 05:15:12;;;;;;;12.65;6.18;;;20.10;92.20;;;;;;4999043;28;20458;-62
2022/08/20 05:17:41;;;;;;;16.88;6.93;;;20.20;92.30;;;;;;5000303;28;20495;-63
2022/08/20 05:20:08;;;;;;;11.45;6.75;;;20.10;92.30;;;;;;4982654;28;20069;-62
2022/08/20 05:22:34;;;;;;;8.38;6.30;;;20.10;92.40;;;;;;5000430;28;20520;-63
2022/08/20 05:25:00;;;;;;;9.90;5.47;;;20.10;92.40;;;;;;4998961;28;20136;-62
2022/08/20 05:27:26;;;;;;;10.02;6.82;;;20.10;92.30;;;;;;4978845;28;20041;-63
2022/08/20 05:29:59;;;;;;;10.10;6.53;;;20.20;92.40;;;;;;4998135;28;20021;-62
2022/08/20 05:32:25;;;;;;;13.75;7.25;;;20.10;92.30;;;;;;4983221;28;20041;-63
2022/08/20 05:34:50;;;;;;;12.40;7.90;;;20.10;92.30;;;;;;4981522;28;20022;-63
2022/08/20 05:37:16;;;;;;;15.00;8.70;;;20.10;92.50;;;;;;4999738;28;21124;-63
2022/08/20 05:39:43;;;;;;;11.60;9.00;;;20.10;92.50;;;;;;4999981;28;20503;-63
2022/08/20 05:42:08;;;;;;;12.48;9.00;;;20.10;92.50;;;;;;5013442;28;20053;-63
2022/08/20 05:44:36;;;;;;;15.02;9.05;;;20.10;92.60;;;;;;4994296;28;20081;-63
2022/08/20 05:47:02;;;;;;;14.40;10.45;;;20.10;92.60;;;;;;4997007;28;20465;-63
2022/08/20 05:49:28;;;;;;;19.60;10.23;;;20.20;92.70;;;;;;4993250;28;20026;-62
2022/08/20 05:51:54;;;;;;;17.85;11.27;;;20.10;92.70;;;;;;4998504;28;20037;-63
2022/08/20 05:54:20;;;;;;;14.50;10.98;;;20.10;92.90;;;;;;4981544;28;20025;-62
2022/08/20 05:56:45;;;;;;;19.83;12.48;;;20.20;92.90;;;;;;4981092;28;20409;-62
2022/08/20 05:59:12;;;;;;;27.30;15.32;;;20.20;93.00;;;;;;5000157;28;20107;-62
2022/08/20 06:01:38;;;;;;;25.30;14.32;;;20.20;93.10;;;;;;4999503;28;20073;-63
2022/08/20 06:06:49;;;;;;;19.75;14.98;;;20.20;93.50;;;;;;4999301;28;20658;-63
2022/08/20 06:09:16;;;;;;;18.67;15.25;;;20.30;93.60;;;;;;4999182;28;20065;-62
2022/08/20 06:11:41;;;;;;;20.50;15.35;;;20.30;93.50;;;;;;4995199;28;20872;-63
2022/08/20 06:14:07;;;;;;;21.95;15.80;;;20.30;93.70;;;;;;4994477;28;20048;-62
2022/08/20 06:16:32;;;;;;;18.45;15.27;;;20.30;93.90;;;;;;4997722;28;20033;-62
2022/08/20 06:18:58;;;;;;;16.42;14.73;;;20.30;93.90;;;;;;4997919;28;20033;-62
2022/08/20 06:21:24;;;;;;;25.13;15.50;;;20.40;94.00;;;;;;4996748;28;20080;-63
2022/08/20 06:23:49;;;;;;;18.17;14.13;;;20.40;94.10;;;;;;4998827;28;20701;-62
2022/08/20 06:26:15;;;;;;;21.15;14.68;;;20.40;94.10;;;;;;4999724;28;20101;-63
2022/08/20 06:28:41;;;;;;;20.88;14.57;;;20.40;94.30;;;;;;4997970;28;20030;-62
2022/08/20 06:31:06;;;;;;;28.55;14.50;;;20.40;94.70;;;;;;4993239;28;20042;-62
2022/08/20 06:33:32;;;;;;;17.42;13.20;;;20.40;94.50;;;;;;4979069;28;20045;-63
2022/08/20 06:35:57;;;;;;;20.67;13.82;;;20.40;94.50;;;;;;4979462;28;21203;-63
2022/08/20 06:38:24;;;;;;;18.40;11.98;;;20.40;94.40;;;;;;4981530;28;20046;-62
2022/08/20 06:40:49;;;;;;;17.88;11.75;;;20.40;94.40;;;;;;4997156;28;20173;-63
2022/08/20 06:43:15;;;;;;;17.50;12.97;;;20.40;94.20;;;;;;4960733;28;1047017;-62
2022/08/20 06:45:40;;;;;;;13.88;11.75;;;20.40;94.20;;;;;;4996080;28;20030;-63
2022/08/20 06:48:08;;;;;;;15.57;11.35;;;20.50;94.10;;;;;;4994806;28;20029;-63
2022/08/20 06:50:38;;;;;;;15.95;10.85;;;20.50;94.10;;;;;;5012780;28;21397;-63
2022/08/20 06:53:05;;;;;;;16.77;11.05;;;20.40;94.10;;;;;;5013193;28;20092;-62
2022/08/20 06:55:31;;;;;;;15.95;11.50;;;20.50;94.00;;;;;;5000560;28;20044;-63
2022/08/20 06:58:02;;;;;;;12.55;10.13;;;20.50;94.00;;;;;;4997895;28;20026;-63
2022/08/20 07:00:33;;;;;;;15.77;10.23;;;20.50;93.90;;;;;;4997752;28;20087;-62
2022/08/20 07:03:00;;;;;;;12.07;9.85;;;20.60;93.80;;;;;;4996428;28;20485;-62
2022/08/20 07:05:26;;;;;;;11.25;9.25;;;20.60;93.70;;;;;;4996275;28;20061;-63
2022/08/20 07:07:52;;;;;;;12.32;10.68;;;20.60;93.70;;;;;;4999422;28;20184;-62
2022/08/20 07:10:18;;;;;;;13.48;9.25;;;20.60;93.90;;;;;;4998480;28;20267;-63
2022/08/20 07:12:45;;;;;;;11.13;8.80;;;20.70;93.90;;;;;;4997707;28;20095;-62
2022/08/20 07:15:12;;;;;;;16.05;9.98;;;20.70;93.80;;;;;;4996933;28;20018;-62
2022/08/20 07:17:38;;;;;;;15.70;9.43;;;20.70;94.00;;;;;;4995194;28;20050;-62
2022/08/20 07:20:22;;;;;;;11.95;8.60;;;20.70;94.00;;;;;;5015024;28;20062;-63
2022/08/20 07:22:47;;;;;;;9.18;8.27;;;20.70;94.10;;;;;;5001226;28;20054;-63
2022/08/20 07:25:15;;;;;;;12.65;8.85;;;20.70;94.00;;;;;;5013519;28;20113;-62
2022/08/20 07:27:41;;;;;;;41.28;10.40;;;20.70;94.20;;;;;;4978873;28;20153;-62
2022/08/20 07:32:51;;;;;;;16.02;8.80;;;20.70;94.20;;;;;;5001354;28;20452;-62
2022/08/20 07:35:17;;;;;;;134.38;18.60;;;20.80;94.10;;;;;;4999851;28;20022;-62
2022/08/20 07:37:45;;;;;;;144.95;18.35;;;20.80;94.10;;;;;;5000668;28;20034;-62
2022/08/20 07:40:13;;;;;;;55.15;10.93;;;20.80;94.10;;;;;;4977746;28;20030;-62
2022/08/20 07:42:39;;;;;;;44.25;10.13;;;20.80;94.00;;;;;;4981050;28;20623;-63
2022/08/20 07:45:09;;;;;;;39.58;10.15;;;20.80;94.00;;;;;;5000573;28;20053;-62
2022/08/20 07:47:38;;;;;;;25.92;8.35;;;20.80;94.10;;;;;;4984717;28;20310;-62
2022/08/20 07:50:04;;;;;;;20.67;7.38;;;20.80;94.10;;;;;;5000337;28;20087;-63
2022/08/20 07:52:29;;;;;;;22.55;7.72;;;20.90;94.30;;;;;;5001274;28;20528;-62
2022/08/20 07:54:55;;;;;;;20.20;8.05;;;20.90;94.00;;;;;;4999592;28;20054;-62
2022/08/20 07:57:20;;;;;;;21.38;7.95;;;20.80;93.90;;;;;;5001006;28;20057;-63
2022/08/20 07:59:47;;;;;;;12.88;6.55;;;20.90;94.00;;;;;;4997206;28;20033;-62
2022/08/20 08:02:13;;;;;;;24.00;7.38;;;20.90;93.70;;;;;;5000375;28;20014;-62
2022/08/20 08:04:38;;;;;;;19.55;7.30;;;21.00;93.80;;;;;;4978652;28;20034;-62
2022/08/20 08:07:04;;;;;;;16.00;6.80;;;21.00;94.30;;;;;;5000431;28;20030;-62
2022/08/20 08:09:29;;;;;;;18.63;7.38;;;21.00;94.40;;;;;;4999210;28;20390;-62
2022/08/20 08:11:56;;;;;;;17.17;7.38;;;21.00;94.30;;;;;;4983272;28;20778;-63
2022/08/20 08:14:25;;;;;;;19.63;7.35;;;21.10;94.20;;;;;;4997574;28;20030;-62
2022/08/20 08:16:53;;;;;;;26.27;7.18;;;21.10;94.10;;;;;;4994766;28;20096;-63
2022/08/20 08:19:18;;;;;;;16.83;6.32;;;21.10;94.30;;;;;;4996276;28;20040;-64
2022/08/20 08:21:44;;;;;;;30.88;7.72;;;21.20;94.10;;;;;;4998255;28;20400;-63
2022/08/20 08:24:10;;;;;;;36.28;7.35;;;21.20;93.90;;;;;;4981328;28;20065;-63
2022/08/20 08:26:35;;;;;;;38.28;8.10;;;21.20;94.10;;;;;;4997875;28;20030;-63
2022/08/20 08:29:01;;;;;;;28.60;7.47;;;21.30;94.10;;;;;;4999412;28;20441;-63
2022/08/20 08:31:27;;;;;;;26.38;7.78;;;21.30;94.00;;;;;;4998652;28;20030;-62
2022/08/20 08:33:52;;;;;;;38.40;8.57;;;21.30;94.10;;;;;;4980526;28;20923;-63
2022/08/20 08:36:18;;;;;;;37.15;9.25;;;21.40;94.00;;;;;;4999361;28;20030;-63
2022/08/20 08:38:44;;;;;;;44.80;9.68;;;21.40;94.00;;;;;;4998367;28;20485;-63
2022/08/20 08:41:17;;;;;;;43.78;10.82;;;21.40;94.00;;;;;;4999704;28;20492;-63
2022/08/20 08:43:45;;;;;;;60.50;11.65;;;21.40;94.20;;;;;;4996279;28;20030;-63
2022/08/20 08:46:11;;;;;;;71.90;13.18;;;21.50;94.50;;;;;;5012077;28;20072;-63
2022/08/20 08:48:44;;;;;;;58.67;10.35;;;21.50;94.30;;;;;;4998318;28;20068;-64
2022/08/20 08:51:11;;;;;;;63.72;11.23;;;21.50;94.20;;;;;;4982230;28;20018;-63
2022/08/20 08:53:52;;;;;;;49.72;10.93;;;21.60;94.10;;;;;;5000341;28;20030;-62
2022/08/20 08:56:17;;;;;;;70.25;12.95;;;21.60;94.20;;;;;;4984022;28;20036;-63
2022/08/20 08:58:43;;;;;;;62.65;11.57;;;21.60;94.20;;;;;;4967187;28;20862;-63
2022/08/20 09:01:14;;;;;;;76.47;11.77;;;21.70;94.30;;;;;;4997030;28;20030;-64
2022/08/20 09:03:42;;;;;;;69.10;12.15;;;21.70;94.60;;;;;;4995264;28;20053;-63
2022/08/20 09:06:07;;;;;;;69.88;12.40;;;21.60;94.60;;;;;;4996570;28;20026;-63
2022/08/20 09:08:38;;;;;;;77.18;12.10;;;21.80;94.60;;;;;;4965305;28;20054;-64
2022/08/20 09:11:05;;;;;;;117.35;16.85;;;21.80;94.60;;;;;;4980780;28;20041;-64
2022/08/20 09:13:31;;;;;;;117.72;15.73;;;21.80;94.70;;;;;;4978324;28;20056;-63
2022/08/20 09:15:56;;;;;;;147.40;17.77;;;21.80;94.60;;;;;;4977009;28;20559;-65
2022/08/20 09:18:22;;;;;;;85.50;15.40;;;21.90;94.60;;;;;;4992812;28;20029;-64
2022/08/20 09:20:47;;;;;;;103.20;17.02;;;21.90;94.70;;;;;;4993528;28;20482;-64
2022/08/20 09:23:13;;;;;;;160.90;17.17;;;21.90;94.70;;;;;;4998389;28;20042;-64
2022/08/20 09:25:38;;;;;;;146.10;18.90;;;21.90;94.60;;;;;;4996066;28;20062;-64
2022/08/20 09:28:04;;;;;;;165.80;22.52;;;22.00;94.60;;;;;;5011556;28;20151;-64
2022/08/20 09:30:29;;;;;;;229.27;28.67;;;22.00;94.80;;;;;;4997150;28;20037;-64
2022/08/20 09:32:58;;;;;;;194.02;23.30;;;22.00;94.80;;;;;;4997361;28;20235;-64
2022/08/20 09:35:23;;;;;;;198.13;25.10;;;22.10;94.90;;;;;;4980547;28;20119;-64
2022/08/20 09:37:50;;;;;;;184.27;24.83;;;22.10;95.00;;;;;;4994843;28;20042;-65
2022/08/20 09:40:16;;;;;;;210.13;23.85;;;22.10;95.00;;;;;;4976774;28;20132;-63
2022/08/20 09:42:42;;;;;;;190.70;22.67;;;22.10;95.20;;;;;;4993328;28;20046;-63
2022/08/20 09:45:08;;;;;;;183.35;23.80;;;22.10;95.10;;;;;;4995839;28;20125;-64
2022/08/20 09:47:33;;;;;;;227.65;26.42;;;22.20;95.10;;;;;;4994129;28;20964;-64
2022/08/20 09:49:59;;;;;;;213.30;26.60;;;22.10;95.40;;;;;;4994125;28;20489;-64
2022/08/20 09:52:26;;;;;;;213.23;24.63;;;22.10;95.20;;;;;;4995220;28;20033;-63
2022/08/20 09:54:56;;;;;;;181.05;21.60;;;22.20;95.40;;;;;;4996211;28;20057;-64
2022/08/20 09:57:22;;;;;;;190.27;22.83;;;22.20;95.30;;;;;;4978336;28;20037;-64
2022/08/20 09:59:51;;;;;;;181.82;23.88;;;22.30;95.30;;;;;;4990011;28;20595;-65
2022/08/20 10:02:17;;;;;;;197.35;24.80;;;22.30;95.40;;;;;;4988326;28;20084;-64
2022/08/20 10:04:42;;;;;;;165.90;23.35;;;22.30;95.40;;;;;;4992887;28;20169;-65
2022/08/20 10:07:08;;;;;;;199.48;25.48;;;22.30;95.50;;;;;;4993084;28;20189;-64
2022/08/20 10:09:34;;;;;;;172.07;25.08;;;22.40;95.40;;;;;;4991073;28;20146;-64
2022/08/20 10:12:00;;;;;;;179.85;24.30;;;22.40;95.30;;;;;;4978514;28;20094;-64
2022/08/20 10:14:25;;;;;;;200.85;24.70;;;22.40;95.30;;;;;;4995393;28;20038;-64
2022/08/20 10:16:55;;;;;;;158.48;21.58;;;22.40;95.30;;;;;;4993787;28;20042;-64
2022/08/20 10:19:21;;;;;;;156.13;21.55;;;22.40;95.30;;;;;;4992196;28;20034;-64
2022/08/20 10:21:46;;;;;;;214.82;25.50;;;22.40;95.20;;;;;;4997602;28;20042;-64
2022/08/20 10:24:12;;;;;;;202.77;24.25;;;22.40;95.30;;;;;;4979282;28;20549;-65
2022/08/20 10:26:37;;;;;;;128.32;19.05;;;22.30;95.30;;;;;;4978224;28;20029;-63
2022/08/20 10:29:03;;;;;;;146.60;20.40;;;22.30;95.20;;;;;;4977483;28;20046;-62
2022/08/20 10:31:28;;;;;;;139.15;18.15;;;22.30;95.40;;;;;;4998414;28;20076;-64
2022/08/20 10:33:55;;;;;;;140.35;18.85;;;22.40;95.40;;;;;;4995013;28;20064;-63
2022/08/20 10:36:20;;;;;;;172.90;19.88;;;22.40;95.40;;;;;;4982047;28;20044;-64
2022/08/20 10:38:47;;;;;;;136.77;19.35;;;22.40;95.50;;;;;;5000706;28;20034;-63
2022/08/20 10:41:13;;;;;;;133.40;19.75;;;22.40;95.40;;;;;;4983830;28;20099;-64
2022/08/20 10:43:38;;;;;;;132.80;18.55;;;22.40;95.40;;;;;;4996819;28;20042;-63
2022/08/20 10:46:04;;;;;;;149.15;20.23;;;22.40;95.40;;;;;;4996392;28;20034;-64
2022/08/20 10:48:30;;;;;;;179.40;20.92;;;22.40;95.80;;;;;;4997308;28;20116;-62
2022/08/20 10:50:55;;;;;;;156.23;21.85;;;22.40;95.60;;;;;;4996437;28;20030;-63
2022/08/20 10:53:21;;;;;;;192.40;21.95;;;22.40;95.60;;;;;;4982563;28;20030;-63
2022/08/20 10:55:47;;;;;;;197.20;24.30;;;22.40;95.50;;;;;;4978787;28;20792;-63
2022/08/20 10:58:12;;;;;;;164.13;21.63;;;22.50;95.70;;;;;;4997277;28;20107;-62
2022/08/20 11:00:38;;;;;;;163.52;21.95;;;22.40;95.80;;;;;;4998950;28;20053;-63
2022/08/20 11:03:04;;;;;;;144.60;19.95;;;22.50;96.20;;;;;;4979630;28;21330;-62
2022/08/20 11:05:29;;;;;;;166.90;21.50;;;22.50;96.60;;;;;;4997726;28;20034;-62
2022/08/20 11:07:55;;;;;;;148.00;21.98;;;22.50;96.50;;;;;;4996583;28;20046;-63
2022/08/20 11:10:21;;;;;;;119.15;20.05;;;22.50;96.80;;;;;;4993629;28;20045;-62
2022/08/20 11:12:46;;;;;;;117.57;18.33;;;22.60;96.60;;;;;;4998940;28;20022;-63
2022/08/20 11:15:12;;;;;;;107.93;16.33;;;22.60;96.50;;;;;;4966654;28;20112;-62
2022/08/20 11:17:39;;;;;;;110.40;16.17;;;22.60;96.40;;;;;;4998685;28;20119;-64
2022/08/20 11:20:06;;;;;;;117.55;16.52;;;22.70;96.90;;;;;;4998545;28;20655;-62
2022/08/20 11:22:32;;;;;;;104.57;15.20;;;22.70;96.40;;;;;;5001562;28;20575;-63
2022/08/20 11:24:58;;;;;;;96.32;14.85;;;22.70;96.20;;;;;;4988003;28;20026;-64
2022/08/20 11:27:25;;;;;;;108.65;15.48;;;22.80;96.10;;;;;;5005855;28;20034;-62
2022/08/20 11:29:51;;;;;;;113.70;15.82;;;22.80;96.00;;;;;;4998424;28;20093;-64
2022/08/20 11:32:16;;;;;;;102.53;14.40;;;22.80;96.10;;;;;;5000586;28;20101;-65
2022/08/20 11:34:42;;;;;;;102.97;14.15;;;22.80;96.30;;;;;;4983441;28;20049;-63
2022/08/20 11:37:07;;;;;;;116.20;14.73;;;22.80;95.80;;;;;;5000055;28;20615;-65
2022/08/20 11:39:33;;;;;;;80.15;13.63;;;22.90;95.90;;;;;;5001150;28;20079;-62
2022/08/20 11:41:58;;;;;;;103.80;14.02;;;22.90;95.80;;;;;;4986757;28;20520;-63
2022/08/20 11:44:24;;;;;;;89.82;14.30;;;23.00;95.80;;;;;;5002572;28;20034;-63
2022/08/20 11:46:49;;;;;;;74.88;13.15;;;23.00;95.80;;;;;;5001538;28;21218;-63
2022/08/20 11:49:15;;;;;;;90.05;13.90;;;23.10;95.80;;;;;;5002422;28;20030;-63
2022/08/20 11:51:41;;;;;;;88.38;13.70;;;23.10;95.60;;;;;;5003766;28;20022;-63
2022/08/20 11:54:06;;;;;;;99.80;13.32;;;23.10;95.50;;;;;;5000265;28;20482;-63
2022/08/20 11:56:32;;;;;;;72.50;11.75;;;23.10;95.50;;;;;;5000654;28;20034;-64
2022/08/20 11:58:57;;;;;;;90.18;11.95;;;23.20;95.50;;;;;;4998576;28;20042;-62
2022/08/20 12:01:23;;;;;;;72.38;11.43;;;23.30;95.40;;;;;;4995894;28;20088;-63
2022/08/20 12:03:48;;;;;;;63.13;11.57;;;23.40;95.20;;;;;;4987802;28;20459;-64
2022/08/20 12:06:14;;;;;;;80.15;10.65;;;23.50;95.00;;;;;;4979870;28;20501;-65
2022/08/20 12:08:39;;;;;;;92.07;14.48;;;23.50;94.90;;;;;;4997302;28;20869;-64
2022/08/20 12:11:05;;;;;;;73.32;13.73;;;23.60;94.70;;;;;;4991881;28;20030;-63
2022/08/20 12:13:33;;;;;;;74.78;11.63;;;23.70;94.40;;;;;;4994650;28;20469;-63
2022/08/20 12:15:58;;;;;;;83.57;13.32;;;23.70;94.10;;;;;;4994917;28;20034;-65
2022/08/20 12:18:24;;;;;;;88.07;13.48;;;23.80;93.90;;;;;;4983410;28;20383;-64
2022/08/20 12:20:50;;;;;;;104.95;14.90;;;23.80;93.70;;;;;;4992381;28;20036;-64
2022/08/20 12:23:15;;;;;;;104.13;12.77;;;23.90;93.40;;;;;;4992150;28;20089;-63
2022/08/20 12:25:41;;;;;;;91.68;12.75;;;24.00;93.00;;;;;;4991702;28;20026;-61
2022/08/20 12:28:06;;;;;;;144.15;16.55;;;24.10;92.90;;;;;;4978125;28;20053;-63
2022/08/20 12:30:32;;;;;;;140.32;15.90;;;24.20;92.70;;;;;;5022684;28;20030;-65
2022/08/20 12:32:58;;;;;;;137.55;16.05;;;24.30;92.50;;;;;;4990465;28;20093;-64
2022/08/20 12:35:24;;;;;;;120.63;14.75;;;24.30;92.40;;;;;;4994715;28;20018;-64
2022/08/20 12:37:49;;;;;;;128.65;16.10;;;24.40;92.20;;;;;;4994850;28;20046;-63